sensor_id;sensor_type;location;lat;lon;timestamp;pressure;altitude;pressure_sealevel;temperature;humidity
23281;BME280;11809;56.390;-3.266;2023-01-08T00:01:14;97488.06;;;15.51;52.95
23281;BME280;11809;56.390;-3.266;2023-01-08T00:03:44;97502.63;;;15.47;53.11
23281;BME280;11809;56.390;-3.266;2023-01-08T00:06:15;97495.16;;;15.42;53.10
23281;BME280;11809;56.390;-3.266;2023-01-08T00:08:43;97505.75;;;15.42;53.24
23281;BME280;11809;56.390;-3.266;2023-01-08T00:11:11;97501.63;;;15.40;53.35
23281;BME280;11809;56.390;-3.266;2023-01-08T00:13:38;97505.59;;;15.36;53.41
23281;BME280;11809;56.390;-3.266;2023-01-08T00:16:11;97498.66;;;15.35;53.08
23281;BME280;11809;56.390;-3.266;2023-01-08T00:18:38;97491.06;;;15.32;53.49
23281;BME280;11809;56.390;-3.266;2023-01-08T00:21:06;97508.91;;;15.30;53.26
23281;BME280;11809;56.390;-3.266;2023-01-08T00:23:34;97503.13;;;15.26;53.39
23281;BME280;11809;56.390;-3.266;2023-01-08T00:26:06;97497.00;;;15.26;53.63
23281;BME280;11809;56.390;-3.266;2023-01-08T00:28:34;97501.66;;;15.24;53.56
23281;BME280;11809;56.390;-3.266;2023-01-08T00:31:05;97506.28;;;15.22;53.65
23281;BME280;11809;56.390;-3.266;2023-01-08T00:33:33;97503.31;;;15.16;53.63
23281;BME280;11809;56.390;-3.266;2023-01-08T00:36:06;97503.13;;;15.18;53.75
23281;BME280;11809;56.390;-3.266;2023-01-08T00:38:34;97511.25;;;15.16;53.60
23281;BME280;11809;56.390;-3.266;2023-01-08T00:41:01;97508.94;;;15.13;53.76
23281;BME280;11809;56.390;-3.266;2023-01-08T00:43:28;97501.97;;;15.12;54.10
23281;BME280;11809;56.390;-3.266;2023-01-08T00:45:55;97511.91;;;15.10;53.86
23281;BME280;11809;56.390;-3.266;2023-01-08T00:48:22;97505.28;;;15.06;53.87
23281;BME280;11809;56.390;-3.266;2023-01-08T00:50:51;97523.78;;;15.06;53.91
23281;BME280;11809;56.390;-3.266;2023-01-08T00:53:19;97513.38;;;15.05;53.88
23281;BME280;11809;56.390;-3.266;2023-01-08T00:55:47;97520.50;;;15.04;54.13
23281;BME280;11809;56.390;-3.266;2023-01-08T00:58:14;97510.25;;;15.01;54.02
23281;BME280;11809;56.390;-3.266;2023-01-08T01:00:41;97513.72;;;15.02;54.00
23281;BME280;11809;56.390;-3.266;2023-01-08T01:03:08;97524.28;;;15.02;54.23
23281;BME280;11809;56.390;-3.266;2023-01-08T01:05:35;97529.91;;;14.99;54.35
23281;BME280;11809;56.390;-3.266;2023-01-08T01:08:02;97523.00;;;14.98;54.16
23281;BME280;11809;56.390;-3.266;2023-01-08T01:10:29;97518.03;;;14.95;54.37
23281;BME280;11809;56.390;-3.266;2023-01-08T01:12:56;97524.94;;;14.96;54.28
23281;BME280;11809;56.390;-3.266;2023-01-08T01:15:23;97511.72;;;14.96;54.42
23281;BME280;11809;56.390;-3.266;2023-01-08T01:17:50;97512.56;;;14.96;54.47
23281;BME280;11809;56.390;-3.266;2023-01-08T01:20:17;97523.78;;;14.98;54.22
23281;BME280;11809;56.390;-3.266;2023-01-08T01:22:44;97518.50;;;14.98;54.25
23281;BME280;11809;56.390;-3.266;2023-01-08T01:25:11;97524.81;;;14.97;54.44
23281;BME280;11809;56.390;-3.266;2023-01-08T01:27:38;97519.66;;;14.96;54.31
23281;BME280;11809;56.390;-3.266;2023-01-08T01:30:06;97528.28;;;14.98;54.60
23281;BME280;11809;56.390;-3.266;2023-01-08T01:32:33;97528.41;;;14.96;54.56
23281;BME280;11809;56.390;-3.266;2023-01-08T01:35:00;97524.16;;;14.95;54.45
23281;BME280;11809;56.390;-3.266;2023-01-08T01:37:27;97527.78;;;14.94;54.86
23281;BME280;11809;56.390;-3.266;2023-01-08T01:39:54;97541.00;;;14.94;54.55
23281;BME280;11809;56.390;-3.266;2023-01-08T01:42:24;97543.13;;;14.91;54.67
23281;BME280;11809;56.390;-3.266;2023-01-08T01:45:22;97540.47;;;14.91;54.87
23281;BME280;11809;56.390;-3.266;2023-01-08T01:48:03;97549.25;;;14.91;54.73
23281;BME280;11809;56.390;-3.266;2023-01-08T01:50:36;97544.94;;;14.90;54.61
23281;BME280;11809;56.390;-3.266;2023-01-08T01:53:17;97550.91;;;14.92;54.82
23281;BME280;11809;56.390;-3.266;2023-01-08T01:55:46;97538.84;;;14.90;54.85
23281;BME280;11809;56.390;-3.266;2023-01-08T01:58:14;97550.06;;;14.92;54.69
23281;BME280;11809;56.390;-3.266;2023-01-08T02:00:42;97556.53;;;14.89;54.72
23281;BME280;11809;56.390;-3.266;2023-01-08T02:03:12;97555.50;;;14.90;54.85
23281;BME280;11809;56.390;-3.266;2023-01-08T02:05:47;97568.72;;;14.90;54.70
23281;BME280;11809;56.390;-3.266;2023-01-08T02:08:33;97570.41;;;14.91;54.88
23281;BME280;11809;56.390;-3.266;2023-01-08T02:11:16;97581.94;;;14.90;55.00
23281;BME280;11809;56.390;-3.266;2023-01-08T02:14:06;97587.94;;;14.92;54.85
23281;BME280;11809;56.390;-3.266;2023-01-08T02:16:40;97588.25;;;14.89;55.06
23281;BME280;11809;56.390;-3.266;2023-01-08T02:27:53;97593.53;;;14.89;55.12
23281;BME280;11809;56.390;-3.266;2023-01-08T02:30:23;97583.78;;;14.90;55.16
23281;BME280;11809;56.390;-3.266;2023-01-08T02:32:50;97595.16;;;14.90;55.26
23281;BME280;11809;56.390;-3.266;2023-01-08T02:35:17;97600.47;;;14.90;55.04
23281;BME280;11809;56.390;-3.266;2023-01-08T02:37:44;97599.66;;;14.90;55.17
23281;BME280;11809;56.390;-3.266;2023-01-08T02:40:41;97606.75;;;14.89;54.97
23281;BME280;11809;56.390;-3.266;2023-01-08T02:43:17;97612.69;;;14.91;55.36
23281;BME280;11809;56.390;-3.266;2023-01-08T02:48:16;97609.22;;;14.91;55.09
23281;BME280;11809;56.390;-3.266;2023-01-08T02:53:24;97598.81;;;14.89;55.30
23281;BME280;11809;56.390;-3.266;2023-01-08T02:55:56;97596.84;;;14.91;54.98
23281;BME280;11809;56.390;-3.266;2023-01-08T02:58:26;97592.53;;;14.90;55.18
23281;BME280;11809;56.390;-3.266;2023-01-08T03:00:55;97600.13;;;14.93;55.25
23281;BME280;11809;56.390;-3.266;2023-01-08T03:03:25;97594.06;;;14.93;55.09
23281;BME280;11809;56.390;-3.266;2023-01-08T03:05:58;97603.78;;;14.92;55.21
23281;BME280;11809;56.390;-3.266;2023-01-08T03:08:26;97620.50;;;14.93;55.27
23281;BME280;11809;56.390;-3.266;2023-01-08T03:10:58;97612.69;;;14.91;55.15
23281;BME280;11809;56.390;-3.266;2023-01-08T03:16:35;97613.38;;;14.93;55.37
23281;BME280;11809;56.390;-3.266;2023-01-08T03:19:10;97607.09;;;14.94;55.41
23281;BME280;11809;56.390;-3.266;2023-01-08T03:21:39;97614.19;;;14.94;55.36
23281;BME280;11809;56.390;-3.266;2023-01-08T03:24:11;97615.03;;;14.94;55.33
23281;BME280;11809;56.390;-3.266;2023-01-08T03:26:39;97594.84;;;14.93;55.26
23281;BME280;11809;56.390;-3.266;2023-01-08T03:29:10;97608.91;;;14.94;55.29
23281;BME280;11809;56.390;-3.266;2023-01-08T03:31:39;97611.41;;;14.95;55.14
23281;BME280;11809;56.390;-3.266;2023-01-08T03:34:07;97603.63;;;14.94;55.08
23281;BME280;11809;56.390;-3.266;2023-01-08T03:36:37;97591.22;;;14.94;55.23
23281;BME280;11809;56.390;-3.266;2023-01-08T03:39:07;97602.47;;;14.96;55.31
23281;BME280;11809;56.390;-3.266;2023-01-08T03:41:37;97608.91;;;14.94;55.41
23281;BME280;11809;56.390;-3.266;2023-01-08T03:44:04;97596.19;;;14.97;55.38
23281;BME280;11809;56.390;-3.266;2023-01-08T03:46:35;97604.13;;;14.97;55.05
23281;BME280;11809;56.390;-3.266;2023-01-08T03:49:03;97602.31;;;14.98;55.14
23281;BME280;11809;56.390;-3.266;2023-01-08T03:51:40;97603.13;;;14.98;55.14
23281;BME280;11809;56.390;-3.266;2023-01-08T03:54:13;97601.47;;;14.97;55.15
23281;BME280;11809;56.390;-3.266;2023-01-08T03:56:40;97606.91;;;14.96;55.08
23281;BME280;11809;56.390;-3.266;2023-01-08T03:59:07;97600.66;;;14.97;55.21
23281;BME280;11809;56.390;-3.266;2023-01-08T04:01:34;97620.00;;;14.97;55.10
23281;BME280;11809;56.390;-3.266;2023-01-08T04:04:01;97607.09;;;14.94;55.15
23281;BME280;11809;56.390;-3.266;2023-01-08T04:06:28;97612.91;;;14.98;55.15
23281;BME280;11809;56.390;-3.266;2023-01-08T04:08:55;97615.69;;;14.96;55.03
23281;BME280;11809;56.390;-3.266;2023-01-08T04:11:22;97620.00;;;14.97;55.16
23281;BME280;11809;56.390;-3.266;2023-01-08T04:13:48;97622.63;;;14.97;55.21
23281;BME280;11809;56.390;-3.266;2023-01-08T04:16:15;97622.63;;;14.97;55.27
23281;BME280;11809;56.390;-3.266;2023-01-08T04:18:42;97630.56;;;14.97;55.28
23281;BME280;11809;56.390;-3.266;2023-01-08T04:21:09;97629.56;;;14.98;55.37
23281;BME280;11809;56.390;-3.266;2023-01-08T04:23:36;97635.69;;;14.99;55.18
23281;BME280;11809;56.390;-3.266;2023-01-08T04:26:07;97633.03;;;14.99;55.28
23281;BME280;11809;56.390;-3.266;2023-01-08T04:28:34;97638.31;;;14.99;55.31
23281;BME280;11809;56.390;-3.266;2023-01-08T04:31:10;97632.38;;;14.97;55.12
23281;BME280;11809;56.390;-3.266;2023-01-08T04:33:37;97634.06;;;14.98;55.09
23281;BME280;11809;56.390;-3.266;2023-01-08T04:36:04;97637.66;;;14.97;55.28
23281;BME280;11809;56.390;-3.266;2023-01-08T04:38:31;97646.25;;;14.99;55.13
23281;BME280;11809;56.390;-3.266;2023-01-08T04:40:59;97626.78;;;15.00;55.08
23281;BME280;11809;56.390;-3.266;2023-01-08T04:43:27;97647.94;;;15.00;55.15
23281;BME280;11809;56.390;-3.266;2023-01-08T04:45:58;97632.22;;;14.98;55.11
23281;BME280;11809;56.390;-3.266;2023-01-08T04:48:26;97644.44;;;14.99;55.15
23281;BME280;11809;56.390;-3.266;2023-01-08T04:50:53;97646.25;;;14.99;55.09
23281;BME280;11809;56.390;-3.266;2023-01-08T04:53:19;97648.59;;;15.02;55.14
23281;BME280;11809;56.390;-3.266;2023-01-08T04:55:46;97639.81;;;15.01;55.36
23281;BME280;11809;56.390;-3.266;2023-01-08T04:58:13;97648.75;;;15.00;55.27
23281;BME280;11809;56.390;-3.266;2023-01-08T05:00:40;97660.97;;;15.01;55.42
23281;BME280;11809;56.390;-3.266;2023-01-08T05:03:07;97655.69;;;15.01;55.24
23281;BME280;11809;56.390;-3.266;2023-01-08T05:05:34;97650.41;;;15.01;55.15
23281;BME280;11809;56.390;-3.266;2023-01-08T05:08:02;97659.34;;;15.00;55.26
23281;BME280;11809;56.390;-3.266;2023-01-08T05:10:29;97642.44;;;14.93;55.27
23281;BME280;11809;56.390;-3.266;2023-01-08T05:12:59;97655.66;;;14.93;55.20
23281;BME280;11809;56.390;-3.266;2023-01-08T05:15:27;97633.03;;;14.91;55.27
23281;BME280;11809;56.390;-3.266;2023-01-08T05:18:02;97654.34;;;14.89;55.14
23281;BME280;11809;56.390;-3.266;2023-01-08T05:20:31;97651.06;;;14.87;55.47
23281;BME280;11809;56.390;-3.266;2023-01-08T05:22:58;97662.91;;;14.83;55.14
23281;BME280;11809;56.390;-3.266;2023-01-08T05:25:25;97655.81;;;14.84;55.49
23281;BME280;11809;56.390;-3.266;2023-01-08T05:27:52;97644.59;;;14.82;55.46
23281;BME280;11809;56.390;-3.266;2023-01-08T05:30:19;97658.78;;;14.81;55.43
23281;BME280;11809;56.390;-3.266;2023-01-08T05:32:46;97652.66;;;14.80;55.51
23281;BME280;11809;56.390;-3.266;2023-01-08T05:35:13;97649.34;;;14.78;55.33
23281;BME280;11809;56.390;-3.266;2023-01-08T05:37:39;97652.19;;;14.77;55.41
23281;BME280;11809;56.390;-3.266;2023-01-08T05:40:07;97659.41;;;14.75;55.46
23281;BME280;11809;56.390;-3.266;2023-01-08T05:42:34;97653.31;;;14.74;55.38
23281;BME280;11809;56.390;-3.266;2023-01-08T05:45:03;97655.13;;;14.74;55.53
23281;BME280;11809;56.390;-3.266;2023-01-08T05:47:31;97635.28;;;14.70;55.67
23281;BME280;11809;56.390;-3.266;2023-01-08T05:49:58;97659.72;;;14.72;55.12
23281;BME280;11809;56.390;-3.266;2023-01-08T05:52:25;97664.22;;;14.71;55.49
23281;BME280;11809;56.390;-3.266;2023-01-08T05:54:52;97657.56;;;14.67;55.65
23281;BME280;11809;56.390;-3.266;2023-01-08T05:57:19;97660.88;;;14.69;55.77
23281;BME280;11809;56.390;-3.266;2023-01-08T05:59:46;97662.03;;;14.67;55.46
23281;BME280;11809;56.390;-3.266;2023-01-08T06:02:13;97668.16;;;14.67;55.76
23281;BME280;11809;56.390;-3.266;2023-01-08T06:04:40;97677.88;;;14.67;55.57
23281;BME280;11809;56.390;-3.266;2023-01-08T06:07:07;97668.47;;;14.64;55.64
23281;BME280;11809;56.390;-3.266;2023-01-08T06:09:34;97668.47;;;14.64;55.83
23281;BME280;11809;56.390;-3.266;2023-01-08T06:12:00;97678.06;;;14.65;55.82
23281;BME280;11809;56.390;-3.266;2023-01-08T06:14:27;97662.38;;;14.64;55.73
23281;BME280;11809;56.390;-3.266;2023-01-08T06:16:54;97675.91;;;14.61;55.71
23281;BME280;11809;56.390;-3.266;2023-01-08T06:19:21;97681.84;;;14.63;55.64
23281;BME280;11809;56.390;-3.266;2023-01-08T06:21:48;97682.34;;;14.58;55.52
23281;BME280;11809;56.390;-3.266;2023-01-08T06:24:15;97669.13;;;14.58;55.59
23281;BME280;11809;56.390;-3.266;2023-01-08T06:26:41;97675.22;;;14.58;55.76
23281;BME280;11809;56.390;-3.266;2023-01-08T06:29:08;97674.41;;;14.58;55.69
23281;BME280;11809;56.390;-3.266;2023-01-08T06:31:35;97680.66;;;14.57;55.69
23281;BME280;11809;56.390;-3.266;2023-01-08T06:34:02;97692.06;;;14.57;55.83
23281;BME280;11809;56.390;-3.266;2023-01-08T06:36:29;97694.06;;;14.55;55.65
23281;BME280;11809;56.390;-3.266;2023-01-08T06:38:56;97685.28;;;14.55;55.54
23281;BME280;11809;56.390;-3.266;2023-01-08T06:41:23;97685.28;;;14.55;55.63
23281;BME280;11809;56.390;-3.266;2023-01-08T06:43:50;97675.03;;;14.52;55.54
23281;BME280;11809;56.390;-3.266;2023-01-08T06:46:17;97666.94;;;14.53;55.41
23281;BME280;11809;56.390;-3.266;2023-01-08T06:48:44;97681.94;;;14.53;55.26
23281;BME280;11809;56.390;-3.266;2023-01-08T06:51:11;97671.72;;;14.50;55.46
23281;BME280;11809;56.390;-3.266;2023-01-08T06:53:38;97669.75;;;14.52;55.50
23281;BME280;11809;56.390;-3.266;2023-01-08T06:56:05;97674.19;;;14.51;55.45
23281;BME280;11809;56.390;-3.266;2023-01-08T06:58:36;97682.97;;;14.52;55.31
23281;BME280;11809;56.390;-3.266;2023-01-08T07:01:03;97688.56;;;14.49;55.43
23281;BME280;11809;56.390;-3.266;2023-01-08T07:03:30;97679.66;;;14.50;55.30
23281;BME280;11809;56.390;-3.266;2023-01-08T07:05:57;97677.16;;;14.48;55.15
23281;BME280;11809;56.390;-3.266;2023-01-08T07:08:24;97677.31;;;14.47;55.44
23281;BME280;11809;56.390;-3.266;2023-01-08T07:10:51;97681.78;;;14.46;55.09
23281;BME280;11809;56.390;-3.266;2023-01-08T07:13:18;97690.66;;;14.45;55.15
23281;BME280;11809;56.390;-3.266;2023-01-08T07:15:45;97681.59;;;14.48;55.27
23281;BME280;11809;56.390;-3.266;2023-01-08T07:18:12;97673.84;;;14.46;55.20
23281;BME280;11809;56.390;-3.266;2023-01-08T07:20:39;97666.75;;;14.47;55.00
23281;BME280;11809;56.390;-3.266;2023-01-08T07:23:08;97661.47;;;14.47;54.96
23281;BME280;11809;56.390;-3.266;2023-01-08T07:25:35;97664.59;;;14.50;54.91
23281;BME280;11809;56.390;-3.266;2023-01-08T07:28:02;97645.31;;;14.50;54.75
23281;BME280;11809;56.390;-3.266;2023-01-08T07:30:30;97636.38;;;14.51;54.76
23281;BME280;11809;56.390;-3.266;2023-01-08T07:32:58;97643.63;;;14.49;54.74
23281;BME280;11809;56.390;-3.266;2023-01-08T07:35:26;97646.09;;;14.50;54.92
23281;BME280;11809;56.390;-3.266;2023-01-08T07:37:53;97635.22;;;14.53;54.98
23281;BME280;11809;56.390;-3.266;2023-01-08T07:40:20;97635.22;;;14.53;54.63
23281;BME280;11809;56.390;-3.266;2023-01-08T07:42:47;97632.41;;;14.47;53.50
23281;BME280;11809;56.390;-3.266;2023-01-08T07:45:14;97631.56;;;14.46;54.27
23281;BME280;11809;56.390;-3.266;2023-01-08T07:47:40;97636.22;;;14.52;54.65
23281;BME280;11809;56.390;-3.266;2023-01-08T07:50:07;97628.97;;;14.54;54.82
23281;BME280;11809;56.390;-3.266;2023-01-08T07:52:34;97635.09;;;14.63;55.25
23281;BME280;11809;56.390;-3.266;2023-01-08T07:55:01;97636.75;;;14.64;55.09
23281;BME280;11809;56.390;-3.266;2023-01-08T07:57:28;97642.03;;;14.64;55.05
23281;BME280;11809;56.390;-3.266;2023-01-08T07:59:55;97647.00;;;14.67;55.09
23281;BME280;11809;56.390;-3.266;2023-01-08T08:02:22;97639.72;;;14.69;55.23
23281;BME280;11809;56.390;-3.266;2023-01-08T08:04:49;97647.34;;;14.72;55.05
23281;BME280;11809;56.390;-3.266;2023-01-08T08:07:16;97643.06;;;14.71;55.07
23281;BME280;11809;56.390;-3.266;2023-01-08T08:09:43;97657.78;;;14.74;55.16
23281;BME280;11809;56.390;-3.266;2023-01-08T08:12:10;97651.00;;;14.71;54.92
23281;BME280;11809;56.390;-3.266;2023-01-08T08:14:37;97657.25;;;14.70;54.89
23281;BME280;11809;56.390;-3.266;2023-01-08T08:17:03;97668.50;;;14.72;54.90
23281;BME280;11809;56.390;-3.266;2023-01-08T08:19:31;97660.41;;;14.74;55.06
23281;BME280;11809;56.390;-3.266;2023-01-08T08:21:57;97650.69;;;14.74;55.47
23281;BME280;11809;56.390;-3.266;2023-01-08T08:24:24;97657.63;;;14.83;55.49
23281;BME280;11809;56.390;-3.266;2023-01-08T08:26:51;97659.63;;;14.81;55.87
23281;BME280;11809;56.390;-3.266;2023-01-08T08:29:19;97664.59;;;14.84;55.93
23281;BME280;11809;56.390;-3.266;2023-01-08T08:31:46;97657.63;;;14.83;56.18
23281;BME280;11809;56.390;-3.266;2023-01-08T08:34:13;97651.38;;;14.84;56.12
23281;BME280;11809;56.390;-3.266;2023-01-08T08:36:40;97662.59;;;14.86;56.19
23281;BME280;11809;56.390;-3.266;2023-01-08T08:39:07;97662.28;;;14.89;56.37
23281;BME280;11809;56.390;-3.266;2023-01-08T08:41:34;97671.53;;;14.93;56.32
23281;BME280;11809;56.390;-3.266;2023-01-08T08:44:01;97668.56;;;14.96;56.37
23281;BME280;11809;56.390;-3.266;2023-01-08T08:46:28;97672.88;;;14.97;56.16
23281;BME280;11809;56.390;-3.266;2023-01-08T08:48:55;97676.00;;;15.01;56.47
23281;BME280;11809;56.390;-3.266;2023-01-08T08:51:22;97676.19;;;14.99;55.86
23281;BME280;11809;56.390;-3.266;2023-01-08T08:53:49;97691.06;;;15.00;55.36
23281;BME280;11809;56.390;-3.266;2023-01-08T08:56:16;97693.53;;;15.02;55.44
23281;BME280;11809;56.390;-3.266;2023-01-08T08:58:44;97691.75;;;15.02;55.45
23281;BME280;11809;56.390;-3.266;2023-01-08T09:01:11;97683.63;;;15.04;55.50
23281;BME280;11809;56.390;-3.266;2023-01-08T09:03:38;97675.22;;;15.08;55.70
23281;BME280;11809;56.390;-3.266;2023-01-08T09:06:05;97683.81;;;15.10;55.77
23281;BME280;11809;56.390;-3.266;2023-01-08T09:08:32;97684.66;;;15.11;55.46
23281;BME280;11809;56.390;-3.266;2023-01-08T09:11:01;97702.03;;;15.13;55.47
23281;BME280;11809;56.390;-3.266;2023-01-08T09:13:28;97693.06;;;15.14;55.68
23281;BME280;11809;56.390;-3.266;2023-01-08T09:15:59;97698.88;;;15.18;55.64
23281;BME280;11809;56.390;-3.266;2023-01-08T09:18:26;97694.44;;;15.18;56.08
23281;BME280;11809;56.390;-3.266;2023-01-08T09:20:53;97666.81;;;15.21;55.61
23281;BME280;11809;56.390;-3.266;2023-01-08T09:23:19;97688.50;;;15.25;55.74
23281;BME280;11809;56.390;-3.266;2023-01-08T09:25:46;97687.47;;;15.26;55.63
23281;BME280;11809;56.390;-3.266;2023-01-08T09:28:13;97682.72;;;15.29;55.64
23281;BME280;11809;56.390;-3.266;2023-01-08T09:30:41;97694.13;;;15.30;55.47
23281;BME280;11809;56.390;-3.266;2023-01-08T09:33:08;97680.72;;;15.31;55.67
23281;BME280;11809;56.390;-3.266;2023-01-08T09:35:35;97687.69;;;15.32;55.44
23281;BME280;11809;56.390;-3.266;2023-01-08T09:38:02;97687.50;;;15.34;55.73
23281;BME280;11809;56.390;-3.266;2023-01-08T09:40:38;97683.03;;;15.34;55.43
23281;BME280;11809;56.390;-3.266;2023-01-08T09:43:08;97687.19;;;15.37;55.70
23281;BME280;11809;56.390;-3.266;2023-01-08T09:45:40;97688.84;;;15.38;55.55
23281;BME280;11809;56.390;-3.266;2023-01-08T09:48:13;97686.84;;;15.40;55.47
23281;BME280;11809;56.390;-3.266;2023-01-08T09:50:42;97679.56;;;15.42;55.55
23281;BME280;11809;56.390;-3.266;2023-01-08T09:53:14;97677.94;;;15.41;55.42
23281;BME280;11809;56.390;-3.266;2023-01-08T09:55:42;97674.13;;;15.43;55.25
23281;BME280;11809;56.390;-3.266;2023-01-08T09:58:34;97680.59;;;15.41;54.81
23281;BME280;11809;56.390;-3.266;2023-01-08T10:01:03;97689.84;;;15.45;55.19
23281;BME280;11809;56.390;-3.266;2023-01-08T10:03:42;97696.81;;;15.46;55.10
23281;BME280;11809;56.390;-3.266;2023-01-08T10:06:11;97689.69;;;15.46;54.89
23281;BME280;11809;56.390;-3.266;2023-01-08T10:08:40;97685.22;;;15.47;54.86
23281;BME280;11809;56.390;-3.266;2023-01-08T10:11:08;97698.47;;;15.47;54.74
23281;BME280;11809;56.390;-3.266;2023-01-08T10:13:38;97687.84;;;15.39;53.43
23281;BME280;11809;56.390;-3.266;2023-01-08T10:16:07;97688.81;;;15.22;51.47
23281;BME280;11809;56.390;-3.266;2023-01-08T10:18:36;97688.78;;;15.05;50.82
23281;BME280;11809;56.390;-3.266;2023-01-08T10:21:03;97689.06;;;14.94;50.33
23281;BME280;11809;56.390;-3.266;2023-01-08T10:23:31;97694.31;;;14.86;50.20
23281;BME280;11809;56.390;-3.266;2023-01-08T10:26:00;97684.75;;;14.93;51.03
23281;BME280;11809;56.390;-3.266;2023-01-08T10:28:32;97702.00;;;15.05;51.99
23281;BME280;11809;56.390;-3.266;2023-01-08T10:31:08;97691.44;;;15.13;52.09
23281;BME280;11809;56.390;-3.266;2023-01-08T10:33:40;97687.47;;;15.17;52.83
23281;BME280;11809;56.390;-3.266;2023-01-08T10:36:11;97689.13;;;15.18;52.86
23281;BME280;11809;56.390;-3.266;2023-01-08T10:39:02;97675.41;;;15.23;53.68
23281;BME280;11809;56.390;-3.266;2023-01-08T10:41:30;97689.16;;;15.27;53.29
23281;BME280;11809;56.390;-3.266;2023-01-08T10:44:05;97691.63;;;15.28;53.66
23281;BME280;11809;56.390;-3.266;2023-01-08T10:46:41;97691.31;;;15.31;53.84
23281;BME280;11809;56.390;-3.266;2023-01-08T10:49:40;97694.78;;;15.32;54.26
23281;BME280;11809;56.390;-3.266;2023-01-08T10:54:51;97686.34;;;15.36;54.64
23281;BME280;11809;56.390;-3.266;2023-01-08T10:57:29;97676.78;;;15.35;54.47
23281;BME280;11809;56.390;-3.266;2023-01-08T10:59:56;97666.31;;;15.34;54.12
23281;BME280;11809;56.390;-3.266;2023-01-08T11:02:31;97675.63;;;15.38;54.36
23281;BME280;11809;56.390;-3.266;2023-01-08T11:05:05;97675.44;;;15.39;54.79
23281;BME280;11809;56.390;-3.266;2023-01-08T11:07:35;97665.34;;;15.35;54.49
23281;BME280;11809;56.390;-3.266;2023-01-08T11:10:03;97667.66;;;15.30;54.36
23281;BME280;11809;56.390;-3.266;2023-01-08T11:12:34;97673.28;;;15.35;54.46
23281;BME280;11809;56.390;-3.266;2023-01-08T11:15:29;97669.63;;;15.36;54.40
23281;BME280;11809;56.390;-3.266;2023-01-08T11:18:41;97673.94;;;15.37;54.63
23281;BME280;11809;56.390;-3.266;2023-01-08T11:21:07;97669.16;;;15.40;54.76
23281;BME280;11809;56.390;-3.266;2023-01-08T11:23:36;97664.84;;;15.39;54.16
23281;BME280;11809;56.390;-3.266;2023-01-08T11:26:13;97658.91;;;15.37;54.55
23281;BME280;11809;56.390;-3.266;2023-01-08T11:31:24;97651.47;;;15.41;54.13
23281;BME280;11809;56.390;-3.266;2023-01-08T11:33:57;97648.00;;;15.40;53.96
23281;BME280;11809;56.390;-3.266;2023-01-08T11:36:43;97658.41;;;15.42;53.97
23281;BME280;11809;56.390;-3.266;2023-01-08T11:39:12;97655.94;;;15.40;53.77
23281;BME280;11809;56.390;-3.266;2023-01-08T11:44:54;97664.53;;;15.42;54.43
23281;BME280;11809;56.390;-3.266;2023-01-08T11:47:34;97654.78;;;15.43;54.21
23281;BME280;11809;56.390;-3.266;2023-01-08T11:50:21;97646.66;;;15.44;53.98
23281;BME280;11809;56.390;-3.266;2023-01-08T11:53:14;97645.53;;;15.47;54.13
23281;BME280;11809;56.390;-3.266;2023-01-08T11:56:09;97640.25;;;15.47;53.89
23281;BME280;11809;56.390;-3.266;2023-01-08T12:14:59;97616.91;;;15.74;53.97
23281;BME280;11809;56.390;-3.266;2023-01-08T12:20:22;97602.81;;;15.82;53.98
23281;BME280;11809;56.390;-3.266;2023-01-08T12:33:42;97616.03;;;15.98;53.54
23281;BME280;11809;56.390;-3.266;2023-01-08T12:36:18;97604.78;;;16.04;53.39
23281;BME280;11809;56.390;-3.266;2023-01-08T12:38:53;97590.38;;;16.07;53.23
23281;BME280;11809;56.390;-3.266;2023-01-08T12:41:22;97584.22;;;16.06;52.93
23281;BME280;11809;56.390;-3.266;2023-01-08T12:44:03;97588.84;;;16.12;53.11
23281;BME280;11809;56.390;-3.266;2023-01-08T12:46:33;97576.25;;;16.14;53.18
23281;BME280;11809;56.390;-3.266;2023-01-08T12:49:01;97574.09;;;16.18;53.12
23281;BME280;11809;56.390;-3.266;2023-01-08T13:05:11;97563.25;;;16.35;52.68
23281;BME280;11809;56.390;-3.266;2023-01-08T13:07:45;97554.34;;;16.28;50.32
23281;BME280;11809;56.390;-3.266;2023-01-08T13:12:58;97543.63;;;16.14;48.23
23281;BME280;11809;56.390;-3.266;2023-01-08T13:15:31;97543.56;;;15.91;47.86
23281;BME280;11809;56.390;-3.266;2023-01-08T13:18:07;97547.66;;;16.02;48.75
23281;BME280;11809;56.390;-3.266;2023-01-08T13:20:41;97543.31;;;16.09;49.93
23281;BME280;11809;56.390;-3.266;2023-01-08T13:23:23;97541.63;;;16.16;50.23
23281;BME280;11809;56.390;-3.266;2023-01-08T13:25:53;97543.94;;;16.19;50.69
23281;BME280;11809;56.390;-3.266;2023-01-08T13:30:51;97546.75;;;16.25;50.99
23281;BME280;11809;56.390;-3.266;2023-01-08T13:38:39;97528.28;;;16.40;51.77
23281;BME280;11809;56.390;-3.266;2023-01-08T13:44:15;97522.28;;;16.54;52.20
23281;BME280;11809;56.390;-3.266;2023-01-08T13:46:52;97522.38;;;16.61;52.26
23281;BME280;11809;56.390;-3.266;2023-01-08T13:49:34;97523.41;;;16.60;51.25
23281;BME280;11809;56.390;-3.266;2023-01-08T13:52:02;97519.09;;;16.51;48.68
23281;BME280;11809;56.390;-3.266;2023-01-08T13:54:47;97518.50;;;16.41;48.10
23281;BME280;11809;56.390;-3.266;2023-01-08T13:57:15;97517.81;;;16.47;49.38
23281;BME280;11809;56.390;-3.266;2023-01-08T13:59:51;97500.88;;;16.56;50.52
23281;BME280;11809;56.390;-3.266;2023-01-08T14:02:31;97499.66;;;16.66;50.79
23281;BME280;11809;56.390;-3.266;2023-01-08T14:05:00;97482.06;;;16.73;51.01
23281;BME280;11809;56.390;-3.266;2023-01-08T14:07:28;97484.16;;;16.78;51.23
23281;BME280;11809;56.390;-3.266;2023-01-08T14:10:06;97487.09;;;16.83;51.43
23281;BME280;11809;56.390;-3.266;2023-01-08T14:12:33;97491.06;;;16.87;51.49
23281;BME280;11809;56.390;-3.266;2023-01-08T14:15:00;97488.03;;;16.90;51.63
23281;BME280;11809;56.390;-3.266;2023-01-08T14:17:30;97488.50;;;16.93;51.59
23281;BME280;11809;56.390;-3.266;2023-01-08T14:19:58;97484.69;;;16.96;51.36
23281;BME280;11809;56.390;-3.266;2023-01-08T14:22:29;97486.34;;;16.97;51.00
23281;BME280;11809;56.390;-3.266;2023-01-08T14:25:00;97474.72;;;16.98;51.07
23281;BME280;11809;56.390;-3.266;2023-01-08T14:27:29;97475.38;;;17.00;51.10